sensor_id;sensor_type;location;lat;lon;timestamp;pressure;altitude;pressure_sealevel;temperature;humidity
15263;BME280;7733;51.554;13.590;2024-01-27T00:01:39;101631.75;;;7.32;79.35
15263;BME280;7733;51.554;13.590;2024-01-27T00:04:05;101628.28;;;7.33;78.77
15263;BME280;7733;51.554;13.590;2024-01-27T00:06:31;101631.78;;;7.35;78.79
15263;BME280;7733;51.554;13.590;2024-01-27T00:08:56;101628.22;;;7.30;78.58
15263;BME280;7733;51.554;13.590;2024-01-27T00:11:22;101629.41;;;7.02;78.97
15263;BME280;7733;51.554;13.590;2024-01-27T00:13:50;101629.56;;;7.10;78.72
15263;BME280;7733;51.554;13.590;2024-01-27T00:16:16;101634.84;;;7.13;78.87
15263;BME280;7733;51.554;13.590;2024-01-27T00:18:41;101636.44;;;7.06;78.22
15263;BME280;7733;51.554;13.590;2024-01-27T00:21:08;101637.91;;;6.93;78.05
15263;BME280;7733;51.554;13.590;2024-01-27T00:23:34;101646.91;;;7.08;77.34
15263;BME280;7733;51.554;13.590;2024-01-27T00:26:01;101652.06;;;7.05;77.45
15263;BME280;7733;51.554;13.590;2024-01-27T00:28:26;101642.72;;;7.16;77.00
15263;BME280;7733;51.554;13.590;2024-01-27T00:30:52;101652.63;;;6.90;77.72
15263;BME280;7733;51.554;13.590;2024-01-27T00:33:18;101654.81;;;7.11;76.94
15263;BME280;7733;51.554;13.590;2024-01-27T00:35:44;101650.03;;;6.90;77.58
15263;BME280;7733;51.554;13.590;2024-01-27T00:38:10;101659.06;;;7.06;77.45
15263;BME280;7733;51.554;13.590;2024-01-27T00:40:35;101665.16;;;7.06;77.22
15263;BME280;7733;51.554;13.590;2024-01-27T00:43:04;101661.56;;;7.01;77.43
15263;BME280;7733;51.554;13.590;2024-01-27T00:45:30;101661.78;;;7.12;77.26
15263;BME280;7733;51.554;13.590;2024-01-27T00:47:58;101670.38;;;7.06;77.32
15263;BME280;7733;51.554;13.590;2024-01-27T00:50:25;101678.72;;;6.90;77.10
15263;BME280;7733;51.554;13.590;2024-01-27T00:52:50;101686.44;;;6.85;76.98
15263;BME280;7733;51.554;13.590;2024-01-27T00:55:16;101685.16;;;7.06;76.73
15263;BME280;7733;51.554;13.590;2024-01-27T00:57:45;101697.34;;;7.07;76.52
15263;BME280;7733;51.554;13.590;2024-01-27T01:00:12;101693.22;;;7.18;76.53
15263;BME280;7733;51.554;13.590;2024-01-27T01:02:38;101685.88;;;7.00;76.98
15263;BME280;7733;51.554;13.590;2024-01-27T01:05:04;101693.59;;;6.95;78.00
15263;BME280;7733;51.554;13.590;2024-01-27T01:07:31;101701.84;;;7.15;77.90
15263;BME280;7733;51.554;13.590;2024-01-27T01:09:57;101698.38;;;7.15;78.18
15263;BME280;7733;51.554;13.590;2024-01-27T01:12:23;101710.63;;;7.19;78.15
15263;BME280;7733;51.554;13.590;2024-01-27T01:14:49;101706.00;;;7.06;78.76
15263;BME280;7733;51.554;13.590;2024-01-27T01:17:15;101712.94;;;7.04;78.63
15263;BME280;7733;51.554;13.590;2024-01-27T01:19:41;101704.19;;;7.01;78.55
15263;BME280;7733;51.554;13.590;2024-01-27T01:22:07;101710.19;;;6.99;78.92
15263;BME280;7733;51.554;13.590;2024-01-27T01:24:33;101718.84;;;6.96;78.79
15263;BME280;7733;51.554;13.590;2024-01-27T01:26:59;101720.00;;;7.09;78.81
15263;BME280;7733;51.554;13.590;2024-01-27T01:29:25;101727.88;;;7.12;78.72
15263;BME280;7733;51.554;13.590;2024-01-27T01:31:52;101723.59;;;7.16;77.71
15263;BME280;7733;51.554;13.590;2024-01-27T01:34:18;101727.75;;;7.06;78.42
15263;BME280;7733;51.554;13.590;2024-01-27T01:36:44;101730.84;;;7.29;77.35
15263;BME280;7733;51.554;13.590;2024-01-27T01:39:11;101731.81;;;6.93;77.77
15263;BME280;7733;51.554;13.590;2024-01-27T01:41:41;101725.97;;;7.04;77.51
15263;BME280;7733;51.554;13.590;2024-01-27T01:44:07;101742.19;;;6.90;77.26
15263;BME280;7733;51.554;13.590;2024-01-27T01:46:34;101740.00;;;7.09;77.74
15263;BME280;7733;51.554;13.590;2024-01-27T01:49:03;101745.34;;;7.15;77.74
15263;BME280;7733;51.554;13.590;2024-01-27T01:51:29;101740.16;;;7.16;77.63
15263;BME280;7733;51.554;13.590;2024-01-27T01:53:58;101738.16;;;7.05;77.62
15263;BME280;7733;51.554;13.590;2024-01-27T01:56:25;101744.47;;;7.16;77.56
15263;BME280;7733;51.554;13.590;2024-01-27T01:58:51;101752.41;;;6.81;78.24
15263;BME280;7733;51.554;13.590;2024-01-27T02:01:18;101750.13;;;6.96;77.93
15263;BME280;7733;51.554;13.590;2024-01-27T02:03:57;101744.84;;;6.93;77.78
15263;BME280;7733;51.554;13.590;2024-01-27T02:06:23;101751.25;;;7.06;77.64
15263;BME280;7733;51.554;13.590;2024-01-27T02:08:49;101755.72;;;6.74;77.90
15263;BME280;7733;51.554;13.590;2024-01-27T02:11:16;101748.97;;;6.82;77.77
15263;BME280;7733;51.554;13.590;2024-01-27T02:13:42;101756.72;;;6.81;78.26
15263;BME280;7733;51.554;13.590;2024-01-27T02:16:08;101755.63;;;6.71;77.51
15263;BME280;7733;51.554;13.590;2024-01-27T02:18:34;101741.00;;;6.78;77.32
15263;BME280;7733;51.554;13.590;2024-01-27T02:21:00;101746.91;;;6.69;77.57
15263;BME280;7733;51.554;13.590;2024-01-27T02:23:25;101739.59;;;6.54;77.81
15263;BME280;7733;51.554;13.590;2024-01-27T02:25:51;101740.97;;;6.76;77.20
15263;BME280;7733;51.554;13.590;2024-01-27T02:28:17;101741.53;;;6.61;77.72
15263;BME280;7733;51.554;13.590;2024-01-27T02:30:43;101755.44;;;6.62;77.82
15263;BME280;7733;51.554;13.590;2024-01-27T02:33:09;101750.09;;;6.57;77.74
15263;BME280;7733;51.554;13.590;2024-01-27T02:35:35;101750.22;;;6.62;77.49
15263;BME280;7733;51.554;13.590;2024-01-27T02:38:01;101746.38;;;6.48;77.99
15263;BME280;7733;51.554;13.590;2024-01-27T02:40:27;101757.00;;;6.55;77.85
15263;BME280;7733;51.554;13.590;2024-01-27T02:42:53;101755.19;;;6.53;77.99
15263;BME280;7733;51.554;13.590;2024-01-27T02:45:18;101761.56;;;6.64;78.10
15263;BME280;7733;51.554;13.590;2024-01-27T02:47:44;101757.16;;;6.61;78.28
15263;BME280;7733;51.554;13.590;2024-01-27T02:50:10;101753.22;;;6.43;78.48
15263;BME280;7733;51.554;13.590;2024-01-27T02:52:36;101760.84;;;6.71;77.88
15263;BME280;7733;51.554;13.590;2024-01-27T02:55:02;101755.56;;;6.68;77.93
15263;BME280;7733;51.554;13.590;2024-01-27T02:57:28;101755.13;;;6.50;78.10
15263;BME280;7733;51.554;13.590;2024-01-27T02:59:54;101759.28;;;6.42;78.36
15263;BME280;7733;51.554;13.590;2024-01-27T03:02:19;101761.41;;;6.58;77.75
15263;BME280;7733;51.554;13.590;2024-01-27T03:04:45;101773.47;;;6.54;77.63
15263;BME280;7733;51.554;13.590;2024-01-27T03:07:11;101773.78;;;6.66;77.54
15263;BME280;7733;51.554;13.590;2024-01-27T03:09:36;101764.88;;;6.58;77.78
15263;BME280;7733;51.554;13.590;2024-01-27T03:12:02;101777.94;;;6.60;77.33
15263;BME280;7733;51.554;13.590;2024-01-27T03:14:28;101767.06;;;6.76;76.71
15263;BME280;7733;51.554;13.590;2024-01-27T03:16:54;101777.53;;;6.78;77.06
15263;BME280;7733;51.554;13.590;2024-01-27T03:19:20;101773.72;;;6.63;76.77
15263;BME280;7733;51.554;13.590;2024-01-27T03:21:46;101768.09;;;6.83;76.58
15263;BME280;7733;51.554;13.590;2024-01-27T03:24:12;101773.84;;;6.69;77.43
15263;BME280;7733;51.554;13.590;2024-01-27T03:26:38;101780.16;;;6.79;77.21
15263;BME280;7733;51.554;13.590;2024-01-27T03:29:03;101775.75;;;6.77;77.02
15263;BME280;7733;51.554;13.590;2024-01-27T03:31:33;101781.22;;;6.86;76.50
15263;BME280;7733;51.554;13.590;2024-01-27T03:34:02;101778.78;;;6.59;76.99
15263;BME280;7733;51.554;13.590;2024-01-27T03:36:29;101780.13;;;6.78;77.41
15263;BME280;7733;51.554;13.590;2024-01-27T03:38:58;101780.09;;;6.76;77.27
15263;BME280;7733;51.554;13.590;2024-01-27T03:41:24;101794.88;;;6.77;76.99
15263;BME280;7733;51.554;13.590;2024-01-27T03:43:51;101790.38;;;6.70;76.93
15263;BME280;7733;51.554;13.590;2024-01-27T03:46:16;101788.16;;;6.85;76.97
15263;BME280;7733;51.554;13.590;2024-01-27T03:48:42;101794.28;;;6.87;76.74
15263;BME280;7733;51.554;13.590;2024-01-27T03:51:08;101797.09;;;6.96;76.25
15263;BME280;7733;51.554;13.590;2024-01-27T03:53:34;101795.81;;;6.79;77.05
15263;BME280;7733;51.554;13.590;2024-01-27T03:56:00;101799.41;;;6.83;76.89
15263;BME280;7733;51.554;13.590;2024-01-27T03:58:30;101801.28;;;6.90;76.25
15263;BME280;7733;51.554;13.590;2024-01-27T04:00:56;101805.25;;;6.74;76.31
15263;BME280;7733;51.554;13.590;2024-01-27T04:03:23;101812.28;;;6.78;76.31
15263;BME280;7733;51.554;13.590;2024-01-27T04:05:48;101814.72;;;6.70;77.10
15263;BME280;7733;51.554;13.590;2024-01-27T04:08:14;101812.94;;;6.68;76.61
15263;BME280;7733;51.554;13.590;2024-01-27T04:10:40;101807.94;;;6.77;76.88
15263;BME280;7733;51.554;13.590;2024-01-27T04:13:06;101801.34;;;6.57;77.38
15263;BME280;7733;51.554;13.590;2024-01-27T04:15:34;101794.44;;;6.59;77.08
15263;BME280;7733;51.554;13.590;2024-01-27T04:18:05;101813.56;;;6.59;77.86
15263;BME280;7733;51.554;13.590;2024-01-27T04:20:34;101817.47;;;6.77;76.71
15263;BME280;7733;51.554;13.590;2024-01-27T04:23:01;101810.81;;;6.88;76.57
15263;BME280;7733;51.554;13.590;2024-01-27T04:25:27;101819.97;;;6.72;77.63
15263;BME280;7733;51.554;13.590;2024-01-27T04:27:52;101823.47;;;6.72;77.62
15263;BME280;7733;51.554;13.590;2024-01-27T04:30:18;101821.88;;;6.79;77.40
15263;BME280;7733;51.554;13.590;2024-01-27T04:32:44;101829.09;;;6.55;77.92
15263;BME280;7733;51.554;13.590;2024-01-27T04:35:11;101821.31;;;6.56;78.29
15263;BME280;7733;51.554;13.590;2024-01-27T04:37:38;101824.00;;;6.59;78.35
15263;BME280;7733;51.554;13.590;2024-01-27T04:40:07;101826.28;;;6.46;78.84
15263;BME280;7733;51.554;13.590;2024-01-27T04:42:34;101826.38;;;6.50;78.47
15263;BME280;7733;51.554;13.590;2024-01-27T04:45:00;101810.56;;;6.43;78.82
15263;BME280;7733;51.554;13.590;2024-01-27T04:47:26;101823.88;;;6.55;78.65
15263;BME280;7733;51.554;13.590;2024-01-27T04:49:52;101832.03;;;6.67;78.22
15263;BME280;7733;51.554;13.590;2024-01-27T04:52:17;101827.03;;;6.76;78.47
15263;BME280;7733;51.554;13.590;2024-01-27T04:54:43;101841.28;;;6.56;78.89
15263;BME280;7733;51.554;13.590;2024-01-27T04:57:09;101848.34;;;6.60;78.70
15263;BME280;7733;51.554;13.590;2024-01-27T04:59:35;101846.25;;;6.45;79.26
15263;BME280;7733;51.554;13.590;2024-01-27T05:02:01;101857.97;;;6.61;78.75
15263;BME280;7733;51.554;13.590;2024-01-27T05:04:27;101841.31;;;6.57;78.94
15263;BME280;7733;51.554;13.590;2024-01-27T05:06:53;101856.75;;;6.48;79.10
15263;BME280;7733;51.554;13.590;2024-01-27T05:09:18;101868.50;;;6.65;78.76
15263;BME280;7733;51.554;13.590;2024-01-27T05:11:44;101862.84;;;6.49;79.45
15263;BME280;7733;51.554;13.590;2024-01-27T05:14:11;101858.03;;;6.64;79.29
15263;BME280;7733;51.554;13.590;2024-01-27T05:16:37;101860.25;;;6.50;79.40
15263;BME280;7733;51.554;13.590;2024-01-27T05:19:03;101856.66;;;6.45;79.60
15263;BME280;7733;51.554;13.590;2024-01-27T05:21:28;101858.03;;;6.64;79.02
15263;BME280;7733;51.554;13.590;2024-01-27T05:23:54;101861.19;;;6.52;79.38
15263;BME280;7733;51.554;13.590;2024-01-27T05:26:21;101857.28;;;6.36;79.89
15263;BME280;7733;51.554;13.590;2024-01-27T05:28:47;101871.13;;;6.34;80.34
15263;BME280;7733;51.554;13.590;2024-01-27T05:31:12;101860.31;;;6.52;79.49
15263;BME280;7733;51.554;13.590;2024-01-27T05:33:42;101853.75;;;6.34;79.29
15263;BME280;7733;51.554;13.590;2024-01-27T05:36:08;101856.47;;;6.39;79.78
15263;BME280;7733;51.554;13.590;2024-01-27T05:38:34;101864.34;;;6.40;79.42
15263;BME280;7733;51.554;13.590;2024-01-27T05:41:03;101861.91;;;6.47;79.27
15263;BME280;7733;51.554;13.590;2024-01-27T05:43:29;101868.97;;;6.51;78.73
15263;BME280;7733;51.554;13.590;2024-01-27T05:45:55;101866.81;;;6.36;79.37
15263;BME280;7733;51.554;13.590;2024-01-27T05:48:21;101876.44;;;6.38;79.66
15263;BME280;7733;51.554;13.590;2024-01-27T05:51:00;101882.94;;;6.21;80.29
15263;BME280;7733;51.554;13.590;2024-01-27T05:53:27;101887.38;;;6.57;79.23
15263;BME280;7733;51.554;13.590;2024-01-27T05:55:53;101886.44;;;6.22;79.74
15263;BME280;7733;51.554;13.590;2024-01-27T05:58:19;101888.25;;;6.24;79.88
15263;BME280;7733;51.554;13.590;2024-01-27T06:00:49;101886.19;;;6.14;80.27
15263;BME280;7733;51.554;13.590;2024-01-27T06:03:15;101897.78;;;6.24;79.96
15263;BME280;7733;51.554;13.590;2024-01-27T06:05:43;101903.84;;;6.23;80.54
15263;BME280;7733;51.554;13.590;2024-01-27T06:08:09;101903.97;;;6.27;80.42
15263;BME280;7733;51.554;13.590;2024-01-27T06:10:34;101911.09;;;6.34;79.92
15263;BME280;7733;51.554;13.590;2024-01-27T06:13:05;101907.13;;;6.17;80.65
15263;BME280;7733;51.554;13.590;2024-01-27T06:15:31;101907.72;;;6.38;79.88
15263;BME280;7733;51.554;13.590;2024-01-27T06:17:57;101913.44;;;6.25;79.91
15263;BME280;7733;51.554;13.590;2024-01-27T06:20:23;101904.28;;;6.39;79.55
15263;BME280;7733;51.554;13.590;2024-01-27T06:22:49;101904.47;;;6.16;80.32
15263;BME280;7733;51.554;13.590;2024-01-27T06:25:15;101910.78;;;6.22;80.73
15263;BME280;7733;51.554;13.590;2024-01-27T06:27:42;101919.91;;;6.08;80.79
15263;BME280;7733;51.554;13.590;2024-01-27T06:30:08;101929.59;;;6.14;80.39
15263;BME280;7733;51.554;13.590;2024-01-27T06:32:35;101927.00;;;6.14;81.03
15263;BME280;7733;51.554;13.590;2024-01-27T06:35:01;101925.13;;;6.39;80.13
15263;BME280;7733;51.554;13.590;2024-01-27T06:37:26;101926.19;;;6.16;81.05
15263;BME280;7733;51.554;13.590;2024-01-27T06:39:52;101923.34;;;6.07;81.21
15263;BME280;7733;51.554;13.590;2024-01-27T06:42:18;101934.59;;;6.06;81.34
15263;BME280;7733;51.554;13.590;2024-01-27T06:44:45;101939.72;;;6.33;80.98
15263;BME280;7733;51.554;13.590;2024-01-27T06:47:11;101938.38;;;6.17;80.99
15263;BME280;7733;51.554;13.590;2024-01-27T06:49:36;101943.88;;;6.26;80.85
15263;BME280;7733;51.554;13.590;2024-01-27T06:52:02;101960.16;;;6.19;81.16
15263;BME280;7733;51.554;13.590;2024-01-27T06:54:29;101957.66;;;6.22;81.16
15263;BME280;7733;51.554;13.590;2024-01-27T06:56:56;101966.66;;;6.33;81.01
15263;BME280;7733;51.554;13.590;2024-01-27T06:59:21;101969.72;;;6.20;81.03
15263;BME280;7733;51.554;13.590;2024-01-27T07:01:48;101958.31;;;6.15;81.41
15263;BME280;7733;51.554;13.590;2024-01-27T07:04:15;101964.72;;;6.26;81.53
15263;BME280;7733;51.554;13.590;2024-01-27T07:06:40;101965.31;;;6.18;81.74
15263;BME280;7733;51.554;13.590;2024-01-27T07:09:06;101969.94;;;6.26;81.24
15263;BME280;7733;51.554;13.590;2024-01-27T07:11:32;101967.72;;;6.10;82.12
15263;BME280;7733;51.554;13.590;2024-01-27T07:13:59;101974.50;;;6.05;82.25
15263;BME280;7733;51.554;13.590;2024-01-27T07:16:24;101970.50;;;6.16;82.03
15263;BME280;7733;51.554;13.590;2024-01-27T07:18:51;101979.16;;;6.15;82.27
15263;BME280;7733;51.554;13.590;2024-01-27T07:21:17;101985.47;;;6.23;82.51
15263;BME280;7733;51.554;13.590;2024-01-27T07:23:43;101981.41;;;6.33;82.26
15263;BME280;7733;51.554;13.590;2024-01-27T07:26:10;101985.25;;;6.16;82.84
15263;BME280;7733;51.554;13.590;2024-01-27T07:28:37;101993.59;;;6.34;82.39
15263;BME280;7733;51.554;13.590;2024-01-27T07:31:04;102010.50;;;6.18;82.64
15263;BME280;7733;51.554;13.590;2024-01-27T07:33:30;101999.53;;;6.28;82.44
15263;BME280;7733;51.554;13.590;2024-01-27T07:35:56;101997.03;;;6.33;82.96
15263;BME280;7733;51.554;13.590;2024-01-27T07:38:22;102002.22;;;6.31;82.89
15263;BME280;7733;51.554;13.590;2024-01-27T07:40:48;102004.03;;;6.34;82.57
15263;BME280;7733;51.554;13.590;2024-01-27T07:43:14;102000.50;;;6.32;82.61
15263;BME280;7733;51.554;13.590;2024-01-27T07:45:39;102010.28;;;6.40;83.01
15263;BME280;7733;51.554;13.590;2024-01-27T07:48:06;102016.88;;;6.58;82.45
15263;BME280;7733;51.554;13.590;2024-01-27T07:50:32;102016.53;;;6.46;82.78
15263;BME280;7733;51.554;13.590;2024-01-27T07:52:59;102019.66;;;6.34;83.43
15263;BME280;7733;51.554;13.590;2024-01-27T07:55:25;102038.31;;;6.48;83.29
15263;BME280;7733;51.554;13.590;2024-01-27T07:57:50;102054.00;;;6.49;83.09
15263;BME280;7733;51.554;13.590;2024-01-27T08:00:16;102058.84;;;6.65;83.29
15263;BME280;7733;51.554;13.590;2024-01-27T08:02:43;102060.03;;;6.78;82.37
15263;BME280;7733;51.554;13.590;2024-01-27T08:05:08;102069.56;;;6.76;82.13
15263;BME280;7733;51.554;13.590;2024-01-27T08:07:34;102081.34;;;6.62;82.29
15263;BME280;7733;51.554;13.590;2024-01-27T08:10:00;102088.91;;;6.54;83.14
15263;BME280;7733;51.554;13.590;2024-01-27T08:12:26;102084.19;;;6.71;83.02
15263;BME280;7733;51.554;13.590;2024-01-27T08:14:52;102093.38;;;6.88;82.13
15263;BME280;7733;51.554;13.590;2024-01-27T08:17:19;102099.56;;;6.92;82.44
15263;BME280;7733;51.554;13.590;2024-01-27T08:19:45;102100.38;;;6.89;82.18
15263;BME280;7733;51.554;13.590;2024-01-27T08:22:10;102112.41;;;6.84;82.56
15263;BME280;7733;51.554;13.590;2024-01-27T08:24:36;102105.50;;;6.86;82.35
15263;BME280;7733;51.554;13.590;2024-01-27T08:27:02;102122.41;;;7.00;82.34
15263;BME280;7733;51.554;13.590;2024-01-27T08:29:28;102121.16;;;6.86;81.98
15263;BME280;7733;51.554;13.590;2024-01-27T08:31:53;102114.94;;;7.13;81.92
15263;BME280;7733;51.554;13.590;2024-01-27T08:34:19;102123.25;;;6.99;82.18
15263;BME280;7733;51.554;13.590;2024-01-27T08:36:45;102121.25;;;6.89;82.80
15263;BME280;7733;51.554;13.590;2024-01-27T08:39:11;102120.16;;;7.13;82.21
15263;BME280;7733;51.554;13.590;2024-01-27T08:41:37;102126.22;;;7.12;82.24
15263;BME280;7733;51.554;13.590;2024-01-27T08:44:03;102124.66;;;6.87;82.78
15263;BME280;7733;51.554;13.590;2024-01-27T08:46:29;102127.88;;;7.08;82.10
15263;BME280;7733;51.554;13.590;2024-01-27T08:48:55;102135.47;;;7.00;82.62
15263;BME280;7733;51.554;13.590;2024-01-27T08:51:21;102125.53;;;7.19;81.59
15263;BME280;7733;51.554;13.590;2024-01-27T08:53:47;102130.25;;;7.00;82.47
15263;BME280;7733;51.554;13.590;2024-01-27T08:56:17;102144.66;;;7.18;81.94
15263;BME280;7733;51.554;13.590;2024-01-27T08:58:44;102149.00;;;7.17;81.84
15263;BME280;7733;51.554;13.590;2024-01-27T09:01:10;102146.34;;;7.16;81.76
15263;BME280;7733;51.554;13.590;2024-01-27T09:03:39;102147.50;;;6.95;82.29
15263;BME280;7733;51.554;13.590;2024-01-27T09:06:07;102157.16;;;6.99;82.53
15263;BME280;7733;51.554;13.590;2024-01-27T09:08:34;102149.00;;;6.87;82.80
15263;BME280;7733;51.554;13.590;2024-01-27T09:11:03;102154.22;;;7.17;82.33
15263;BME280;7733;51.554;13.590;2024-01-27T09:13:28;102156.97;;;7.22;81.89
15263;BME280;7733;51.554;13.590;2024-01-27T09:15:57;102159.97;;;7.06;82.38
15263;BME280;7733;51.554;13.590;2024-01-27T09:18:23;102175.81;;;7.12;82.16
15263;BME280;7733;51.554;13.590;2024-01-27T09:20:48;102159.69;;;6.96;81.93
15263;BME280;7733;51.554;13.590;2024-01-27T09:23:14;102164.13;;;7.29;81.37
15263;BME280;7733;51.554;13.590;2024-01-27T09:25:40;102165.81;;;7.27;81.49
15263;BME280;7733;51.554;13.590;2024-01-27T09:28:06;102165.09;;;7.32;81.63
15263;BME280;7733;51.554;13.590;2024-01-27T09:30:31;102168.50;;;7.61;81.11
15263;BME280;7733;51.554;13.590;2024-01-27T09:32:57;102159.25;;;7.41;81.02
15263;BME280;7733;51.554;13.590;2024-01-27T09:35:23;102166.25;;;7.42;81.12
15263;BME280;7733;51.554;13.590;2024-01-27T09:37:48;102174.28;;;7.20;81.79
15263;BME280;7733;51.554;13.590;2024-01-27T09:40:14;102171.19;;;7.33;81.49
15263;BME280;7733;51.554;13.590;2024-01-27T09:42:51;102160.66;;;7.30;81.99
15263;BME280;7733;51.554;13.590;2024-01-27T09:45:21;102162.59;;;7.06;82.39
15263;BME280;7733;51.554;13.590;2024-01-27T09:47:48;102156.75;;;7.46;81.52
15263;BME280;7733;51.554;13.590;2024-01-27T09:50:17;102166.56;;;7.23;81.95
15263;BME280;7733;51.554;13.590;2024-01-27T09:52:43;102157.75;;;7.19;81.04
15263;BME280;7733;51.554;13.590;2024-01-27T09:55:09;102173.22;;;7.43;81.24
15263;BME280;7733;51.554;13.590;2024-01-27T09:57:38;102175.31;;;7.56;81.13
15263;BME280;7733;51.554;13.590;2024-01-27T10:00:10;102175.94;;;7.46;81.02
15263;BME280;7733;51.554;13.590;2024-01-27T10:02:39;102183.47;;;7.37;80.92
15263;BME280;7733;51.554;13.590;2024-01-27T10:05:08;102183.69;;;7.43;80.87
15263;BME280;7733;51.554;13.590;2024-01-27T10:07:34;102183.56;;;7.40;81.11
15263;BME280;7733;51.554;13.590;2024-01-27T10:10:00;102192.91;;;7.32;80.63
15263;BME280;7733;51.554;13.590;2024-01-27T10:12:28;102186.03;;;7.66;80.41
15263;BME280;7733;51.554;13.590;2024-01-27T10:14:54;102189.41;;;7.61;80.57
15263;BME280;7733;51.554;13.590;2024-01-27T10:17:24;102184.88;;;7.56;80.65
15263;BME280;7733;51.554;13.590;2024-01-27T10:20:05;102192.94;;;7.63;80.58
15263;BME280;7733;51.554;13.590;2024-01-27T10:22:38;102177.56;;;7.76;80.41
15263;BME280;7733;51.554;13.590;2024-01-27T10:25:06;102182.91;;;7.80;80.67
15263;BME280;7733;51.554;13.590;2024-01-27T10:27:32;102172.88;;;7.62;81.11
15263;BME280;7733;51.554;13.590;2024-01-27T10:29:58;102171.84;;;7.57;80.84
15263;BME280;7733;51.554;13.590;2024-01-27T10:32:24;102162.34;;;7.59;81.22
15263;BME280;7733;51.554;13.590;2024-01-27T10:35:06;102170.28;;;7.62;80.58
15263;BME280;7733;51.554;13.590;2024-01-27T10:37:37;102169.50;;;7.35;81.47
15263;BME280;7733;51.554;13.590;2024-01-27T10:40:05;102159.78;;;7.61;80.52
15263;BME280;7733;51.554;13.590;2024-01-27T10:42:36;102172.13;;;7.67;80.94
15263;BME280;7733;51.554;13.590;2024-01-27T10:45:04;102170.00;;;7.85;80.10
15263;BME280;7733;51.554;13.590;2024-01-27T10:47:32;102166.97;;;7.70;80.84
15263;BME280;7733;51.554;13.590;2024-01-27T10:50:00;102169.28;;;7.92;79.96
15263;BME280;7733;51.554;13.590;2024-01-27T10:52:37;102166.88;;;8.00;79.86
15263;BME280;7733;51.554;13.590;2024-01-27T10:55:05;102171.88;;;7.90;80.31
15263;BME280;7733;51.554;13.590;2024-01-27T10:57:34;102162.50;;;7.99;80.77
15263;BME280;7733;51.554;13.590;2024-01-27T11:00:04;102166.94;;;8.01;80.07
15263;BME280;7733;51.554;13.590;2024-01-27T11:02:36;102165.84;;;7.93;80.66
15263;BME280;7733;51.554;13.590;2024-01-27T11:05:04;102163.81;;;7.81;80.51
15263;BME280;7733;51.554;13.590;2024-01-27T11:07:34;102159.56;;;7.53;80.80
15263;BME280;7733;51.554;13.590;2024-01-27T11:10:01;102171.94;;;7.93;80.30
15263;BME280;7733;51.554;13.590;2024-01-27T11:12:27;102173.75;;;7.61;80.58
15263;BME280;7733;51.554;13.590;2024-01-27T11:14:53;102177.97;;;7.91;80.44
15263;BME280;7733;51.554;13.590;2024-01-27T11:17:20;102181.59;;;7.96;79.85
15263;BME280;7733;51.554;13.590;2024-01-27T11:19:46;102184.19;;;7.96;80.20
15263;BME280;7733;51.554;13.590;2024-01-27T11:22:28;102197.34;;;7.99;80.82
15263;BME280;7733;51.554;13.590;2024-01-27T11:27:41;102188.34;;;7.88;81.02
15263;BME280;7733;51.554;13.590;2024-01-27T11:30:29;102182.44;;;7.95;80.53
15263;BME280;7733;51.554;13.590;2024-01-27T11:32:57;102188.84;;;8.06;79.62
15263;BME280;7733;51.554;13.590;2024-01-27T11:35:24;102189.13;;;8.18;80.14
15263;BME280;7733;51.554;13.590;2024-01-27T11:37:50;102194.31;;;8.51;79.08
15263;BME280;7733;51.554;13.590;2024-01-27T11:40:15;102197.47;;;8.38;79.59
15263;BME280;7733;51.554;13.590;2024-01-27T11:42:42;102201.78;;;8.36;78.93
15263;BME280;7733;51.554;13.590;2024-01-27T11:45:11;102191.38;;;8.38;79.35
15263;BME280;7733;51.554;13.590;2024-01-27T11:47:37;102194.00;;;8.38;78.71
15263;BME280;7733;51.554;13.590;2024-01-27T11:50:03;102191.53;;;8.44;79.18
15263;BME280;7733;51.554;13.590;2024-01-27T11:52:29;102197.09;;;8.59;79.08
15263;BME280;7733;51.554;13.590;2024-01-27T11:54:59;102202.69;;;8.74;78.58
15263;BME280;7733;51.554;13.590;2024-01-27T11:57:26;102190.34;;;8.67;78.36
15263;BME280;7733;51.554;13.590;2024-01-27T11:59:53;102195.47;;;8.63;78.44
15263;BME280;7733;51.554;13.590;2024-01-27T12:02:20;102198.78;;;8.21;79.15
15263;BME280;7733;51.554;13.590;2024-01-27T12:04:47;102207.13;;;8.41;78.85
15263;BME280;7733;51.554;13.590;2024-01-27T12:07:15;102202.88;;;8.44;78.67
15263;BME280;7733;51.554;13.590;2024-01-27T12:09:41;102202.25;;;8.54;78.51
15263;BME280;7733;51.554;13.590;2024-01-27T12:12:08;102206.44;;;8.48;77.72
15263;BME280;7733;51.554;13.590;2024-01-27T12:14:47;102211.53;;;8.42;77.84
15263;BME280;7733;51.554;13.590;2024-01-27T12:17:14;102212.31;;;8.39;78.00
15263;BME280;7733;51.554;13.590;2024-01-27T12:19:47;102212.25;;;8.36;78.37
15263;BME280;7733;51.554;13.590;2024-01-27T12:22:28;102217.97;;;8.56;77.91
15263;BME280;7733;51.554;13.590;2024-01-27T12:25:15;102207.66;;;8.62;77.76
15263;BME280;7733;51.554;13.590;2024-01-27T12:27:41;102203.00;;;8.87;77.08
15263;BME280;7733;51.554;13.590;2024-01-27T12:30:08;102210.66;;;8.79;77.72
15263;BME280;7733;51.554;13.590;2024-01-27T12:32:34;102211.41;;;8.73;77.53
15263;BME280;7733;51.554;13.590;2024-01-27T12:35:10;102219.66;;;8.54;77.39
15263;BME280;7733;51.554;13.590;2024-01-27T12:37:36;102219.66;;;8.54;76.99
15263;BME280;7733;51.554;13.590;2024-01-27T12:40:02;102222.75;;;8.74;77.08
15263;BME280;7733;51.554;13.590;2024-01-27T12:42:28;102222.53;;;8.63;77.59
15263;BME280;7733;51.554;13.590;2024-01-27T12:44:54;102229.25;;;8.91;76.71
15263;BME280;7733;51.554;13.590;2024-01-27T12:47:20;102227.94;;;9.10;76.59
15263;BME280;7733;51.554;13.590;2024-01-27T12:49:45;102233.16;;;9.10;76.59
15263;BME280;7733;51.554;13.590;2024-01-27T12:52:11;102230.22;;;9.35;76.42
15263;BME280;7733;51.554;13.590;2024-01-27T12:54:37;102225.19;;;9.44;75.97
15263;BME280;7733;51.554;13.590;2024-01-27T12:57:04;102219.97;;;9.05;76.15
15263;BME280;7733;51.554;13.590;2024-01-27T12:59:31;102213.00;;;9.47;75.49
15263;BME280;7733;51.554;13.590;2024-01-27T13:01:57;102221.56;;;9.39;75.74